Terminal Aerodrome Forecast
Issued by NWS Greer, SC

Home | Current Version | Previous Version | Text Only | Print | Product List | Glossary On
Versions: 1 2 3 4 5 6 7 8 9 10 11 12 13 14 15 16 17 18 19 20 21 22
000
FTUS42 KGSP 270706 AAA
TAFAVL
TAF AMD
KAVL 270706Z 2707/2806 15003KT P6SM VCSH OVC035
     FM270800 00000KT 5SM BR VCSH SCT005 OVC010
      TEMPO 2709/2712 3SM BR OVC005
     FM271300 17005KT P6SM SCT025 BKN050 PROB30 2717/2723 4SM -TSRA
      OVC025CB
     FM280300 14003KT P6SM -SHRA OVC025=

USA.gov is the U.S. government's official web portal to all federal, state and local government web resources and services.